sensor_id;sensor_type;location;lat;lon;timestamp;P1;durP1;ratioP1;P2;durP2;ratioP2
11761;SDS011;5938;47.098;15.474;2024-03-22T00:02:17;30.60;;;4.00;;
11761;SDS011;5938;47.098;15.474;2024-03-22T00:06:20;30.40;;;3.37;;
11761;SDS011;5938;47.098;15.474;2024-03-22T00:10:22;29.07;;;3.00;;
11761;SDS011;5938;47.098;15.474;2024-03-22T00:14:25;29.03;;;3.03;;
11761;SDS011;5938;47.098;15.474;2024-03-22T00:18:29;29.77;;;3.13;;
11761;SDS011;5938;47.098;15.474;2024-03-22T00:22:31;29.20;;;3.10;;
11761;SDS011;5938;47.098;15.474;2024-03-22T00:26:33;29.67;;;3.30;;
11761;SDS011;5938;47.098;15.474;2024-03-22T00:30:36;29.60;;;3.80;;
11761;SDS011;5938;47.098;15.474;2024-03-22T00:34:40;30.60;;;3.93;;
11761;SDS011;5938;47.098;15.474;2024-03-22T00:38:42;29.50;;;3.23;;
11761;SDS011;5938;47.098;15.474;2024-03-22T00:42:44;29.13;;;3.43;;
11761;SDS011;5938;47.098;15.474;2024-03-22T00:46:48;30.20;;;4.13;;
11761;SDS011;5938;47.098;15.474;2024-03-22T00:50:52;29.50;;;3.33;;
11761;SDS011;5938;47.098;15.474;2024-03-22T00:54:54;32.43;;;3.97;;
11761;SDS011;5938;47.098;15.474;2024-03-22T00:58:57;29.60;;;3.67;;
11761;SDS011;5938;47.098;15.474;2024-03-22T01:02:59;29.50;;;3.60;;
11761;SDS011;5938;47.098;15.474;2024-03-22T01:07:03;29.77;;;3.67;;
11761;SDS011;5938;47.098;15.474;2024-03-22T01:11:05;30.20;;;3.53;;
11761;SDS011;5938;47.098;15.474;2024-03-22T01:15:08;30.00;;;3.97;;
11761;SDS011;5938;47.098;15.474;2024-03-22T01:19:10;29.57;;;3.37;;
11761;SDS011;5938;47.098;15.474;2024-03-22T01:23:13;29.30;;;3.57;;
11761;SDS011;5938;47.098;15.474;2024-03-22T01:27:16;29.20;;;3.20;;
11761;SDS011;5938;47.098;15.474;2024-03-22T01:31:18;30.77;;;3.67;;
11761;SDS011;5938;47.098;15.474;2024-03-22T01:35:20;29.37;;;3.23;;
11761;SDS011;5938;47.098;15.474;2024-03-22T01:39:24;29.90;;;3.87;;
11761;SDS011;5938;47.098;15.474;2024-03-22T01:43:27;29.40;;;3.13;;
11761;SDS011;5938;47.098;15.474;2024-03-22T01:47:29;29.50;;;3.50;;
11761;SDS011;5938;47.098;15.474;2024-03-22T01:51:32;29.83;;;3.47;;
11761;SDS011;5938;47.098;15.474;2024-03-22T01:55:36;29.50;;;3.27;;
11761;SDS011;5938;47.098;15.474;2024-03-22T01:59:39;29.27;;;3.83;;
11761;SDS011;5938;47.098;15.474;2024-03-22T02:03:41;33.87;;;5.37;;
11761;SDS011;5938;47.098;15.474;2024-03-22T02:07:44;30.30;;;4.20;;
11761;SDS011;5938;47.098;15.474;2024-03-22T02:11:48;32.83;;;4.53;;
11761;SDS011;5938;47.098;15.474;2024-03-22T02:15:50;29.27;;;3.70;;
11761;SDS011;5938;47.098;15.474;2024-03-22T02:19:52;29.47;;;3.80;;
11761;SDS011;5938;47.098;15.474;2024-03-22T02:23:56;32.63;;;4.13;;
11761;SDS011;5938;47.098;15.474;2024-03-22T02:27:58;34.03;;;4.50;;
11761;SDS011;5938;47.098;15.474;2024-03-22T02:32:00;30.00;;;4.10;;
11761;SDS011;5938;47.098;15.474;2024-03-22T02:36:04;30.80;;;4.47;;
11761;SDS011;5938;47.098;15.474;2024-03-22T02:40:09;30.93;;;4.77;;
11761;SDS011;5938;47.098;15.474;2024-03-22T02:44:12;30.53;;;5.47;;
11761;SDS011;5938;47.098;15.474;2024-03-22T02:48:15;29.27;;;4.47;;
11761;SDS011;5938;47.098;15.474;2024-03-22T02:52:17;29.70;;;4.47;;
11761;SDS011;5938;47.098;15.474;2024-03-22T02:56:21;31.53;;;4.70;;
11761;SDS011;5938;47.098;15.474;2024-03-22T03:00:23;31.93;;;4.93;;
11761;SDS011;5938;47.098;15.474;2024-03-22T03:04:25;31.63;;;4.23;;
11761;SDS011;5938;47.098;15.474;2024-03-22T03:08:28;29.10;;;3.87;;
11761;SDS011;5938;47.098;15.474;2024-03-22T03:12:31;28.57;;;3.97;;
11761;SDS011;5938;47.098;15.474;2024-03-22T03:16:34;28.80;;;4.10;;
11761;SDS011;5938;47.098;15.474;2024-03-22T03:20:35;28.80;;;4.20;;
11761;SDS011;5938;47.098;15.474;2024-03-22T03:24:38;29.40;;;4.17;;
11761;SDS011;5938;47.098;15.474;2024-03-22T03:28:41;32.07;;;3.77;;
11761;SDS011;5938;47.098;15.474;2024-03-22T03:32:44;29.83;;;4.30;;
11761;SDS011;5938;47.098;15.474;2024-03-22T03:36:46;28.03;;;3.83;;
11761;SDS011;5938;47.098;15.474;2024-03-22T03:40:49;28.23;;;3.37;;
11761;SDS011;5938;47.098;15.474;2024-03-22T03:44:52;29.57;;;4.47;;
11761;SDS011;5938;47.098;15.474;2024-03-22T03:48:55;29.97;;;4.27;;
11761;SDS011;5938;47.098;15.474;2024-03-22T03:52:57;28.97;;;4.40;;
11761;SDS011;5938;47.098;15.474;2024-03-22T03:57:00;29.57;;;4.47;;
11761;SDS011;5938;47.098;15.474;2024-03-22T04:01:06;28.87;;;4.00;;
11761;SDS011;5938;47.098;15.474;2024-03-22T04:05:09;29.07;;;4.17;;
11761;SDS011;5938;47.098;15.474;2024-03-22T04:09:11;28.93;;;4.20;;
11761;SDS011;5938;47.098;15.474;2024-03-22T04:13:14;29.70;;;3.93;;
11761;SDS011;5938;47.098;15.474;2024-03-22T04:17:17;28.90;;;4.03;;
11761;SDS011;5938;47.098;15.474;2024-03-22T04:21:20;28.00;;;3.93;;
11761;SDS011;5938;47.098;15.474;2024-03-22T04:25:22;30.30;;;4.00;;
11761;SDS011;5938;47.098;15.474;2024-03-22T04:29:25;28.93;;;3.90;;
11761;SDS011;5938;47.098;15.474;2024-03-22T04:33:29;29.97;;;4.00;;
11761;SDS011;5938;47.098;15.474;2024-03-22T04:37:32;29.13;;;4.17;;
11761;SDS011;5938;47.098;15.474;2024-03-22T04:41:35;30.97;;;4.20;;
11761;SDS011;5938;47.098;15.474;2024-03-22T04:45:37;31.30;;;6.40;;
11761;SDS011;5938;47.098;15.474;2024-03-22T04:49:41;30.60;;;5.80;;
11761;SDS011;5938;47.098;15.474;2024-03-22T04:53:43;35.17;;;8.97;;
11761;SDS011;5938;47.098;15.474;2024-03-22T04:57:46;32.20;;;6.70;;
11761;SDS011;5938;47.098;15.474;2024-03-22T05:01:48;40.40;;;7.87;;
11761;SDS011;5938;47.098;15.474;2024-03-22T05:05:52;40.40;;;9.57;;
11761;SDS011;5938;47.098;15.474;2024-03-22T05:09:55;31.43;;;6.07;;
11761;SDS011;5938;47.098;15.474;2024-03-22T05:13:57;37.47;;;8.00;;
11761;SDS011;5938;47.098;15.474;2024-03-22T05:18:00;36.00;;;6.77;;
11761;SDS011;5938;47.098;15.474;2024-03-22T05:22:04;36.17;;;6.03;;
11761;SDS011;5938;47.098;15.474;2024-03-22T05:26:07;31.57;;;4.90;;
11761;SDS011;5938;47.098;15.474;2024-03-22T05:30:10;32.03;;;5.77;;
11761;SDS011;5938;47.098;15.474;2024-03-22T05:34:13;32.90;;;5.20;;
11761;SDS011;5938;47.098;15.474;2024-03-22T05:38:18;30.53;;;5.53;;
11761;SDS011;5938;47.098;15.474;2024-03-22T05:42:20;32.80;;;6.27;;
11761;SDS011;5938;47.098;15.474;2024-03-22T05:46:22;35.03;;;7.60;;
11761;SDS011;5938;47.098;15.474;2024-03-22T05:50:25;40.30;;;8.37;;
11761;SDS011;5938;47.098;15.474;2024-03-22T05:54:28;33.13;;;6.70;;
11761;SDS011;5938;47.098;15.474;2024-03-22T05:58:30;31.00;;;6.07;;
11761;SDS011;5938;47.098;15.474;2024-03-22T06:02:32;30.97;;;5.57;;
11761;SDS011;5938;47.098;15.474;2024-03-22T06:06:35;34.97;;;7.17;;
11761;SDS011;5938;47.098;15.474;2024-03-22T06:10:40;38.23;;;5.37;;
11761;SDS011;5938;47.098;15.474;2024-03-22T06:14:42;31.90;;;5.60;;
11761;SDS011;5938;47.098;15.474;2024-03-22T06:18:44;32.90;;;5.57;;
11761;SDS011;5938;47.098;15.474;2024-03-22T06:22:47;30.87;;;5.37;;
11761;SDS011;5938;47.098;15.474;2024-03-22T06:26:51;36.33;;;6.33;;
11761;SDS011;5938;47.098;15.474;2024-03-22T06:30:53;31.07;;;6.20;;
11761;SDS011;5938;47.098;15.474;2024-03-22T06:34:55;30.17;;;5.30;;
11761;SDS011;5938;47.098;15.474;2024-03-22T06:38:58;31.93;;;6.17;;
11761;SDS011;5938;47.098;15.474;2024-03-22T06:43:02;31.40;;;5.97;;
11761;SDS011;5938;47.098;15.474;2024-03-22T06:47:05;40.47;;;6.60;;
11761;SDS011;5938;47.098;15.474;2024-03-22T06:51:08;33.53;;;5.77;;
11761;SDS011;5938;47.098;15.474;2024-03-22T06:55:11;33.37;;;6.10;;
11761;SDS011;5938;47.098;15.474;2024-03-22T06:59:15;31.43;;;5.30;;
11761;SDS011;5938;47.098;15.474;2024-03-22T07:03:17;32.50;;;5.13;;
11761;SDS011;5938;47.098;15.474;2024-03-22T07:07:20;30.57;;;5.00;;
11761;SDS011;5938;47.098;15.474;2024-03-22T07:11:22;35.27;;;5.27;;
11761;SDS011;5938;47.098;15.474;2024-03-22T07:15:26;31.17;;;5.20;;
11761;SDS011;5938;47.098;15.474;2024-03-22T07:19:30;33.93;;;5.10;;
11761;SDS011;5938;47.098;15.474;2024-03-22T07:23:34;31.77;;;5.50;;
11761;SDS011;5938;47.098;15.474;2024-03-22T07:27:36;32.10;;;6.47;;
11761;SDS011;5938;47.098;15.474;2024-03-22T07:31:40;30.57;;;5.37;;
11761;SDS011;5938;47.098;15.474;2024-03-22T07:35:43;31.67;;;6.77;;
11761;SDS011;5938;47.098;15.474;2024-03-22T07:39:46;32.73;;;8.27;;
11761;SDS011;5938;47.098;15.474;2024-03-22T07:43:48;29.80;;;5.80;;
11761;SDS011;5938;47.098;15.474;2024-03-22T07:47:52;30.87;;;5.10;;
11761;SDS011;5938;47.098;15.474;2024-03-22T07:51:55;31.07;;;5.60;;
11761;SDS011;5938;47.098;15.474;2024-03-22T07:55:57;28.37;;;5.67;;
11761;SDS011;5938;47.098;15.474;2024-03-22T08:00:01;32.80;;;5.63;;
11761;SDS011;5938;47.098;15.474;2024-03-22T08:04:05;30.97;;;5.70;;
11761;SDS011;5938;47.098;15.474;2024-03-22T08:08:07;28.03;;;5.47;;
11761;SDS011;5938;47.098;15.474;2024-03-22T08:12:10;26.77;;;5.20;;
11761;SDS011;5938;47.098;15.474;2024-03-22T08:16:12;28.30;;;5.23;;
11761;SDS011;5938;47.098;15.474;2024-03-22T08:20:16;30.57;;;5.50;;
11761;SDS011;5938;47.098;15.474;2024-03-22T08:24:19;28.60;;;5.30;;
11761;SDS011;5938;47.098;15.474;2024-03-22T08:28:21;26.23;;;5.37;;
11761;SDS011;5938;47.098;15.474;2024-03-22T08:32:24;26.30;;;4.90;;
11761;SDS011;5938;47.098;15.474;2024-03-22T08:36:28;26.10;;;4.33;;
11761;SDS011;5938;47.098;15.474;2024-03-22T08:40:31;26.33;;;4.40;;
11761;SDS011;5938;47.098;15.474;2024-03-22T08:44:37;25.67;;;4.17;;
11761;SDS011;5938;47.098;15.474;2024-03-22T08:48:40;24.90;;;4.17;;
11761;SDS011;5938;47.098;15.474;2024-03-22T08:52:44;24.40;;;3.77;;
11761;SDS011;5938;47.098;15.474;2024-03-22T08:56:47;22.83;;;3.77;;
11761;SDS011;5938;47.098;15.474;2024-03-22T09:00:50;23.50;;;3.50;;
11761;SDS011;5938;47.098;15.474;2024-03-22T09:04:53;20.33;;;3.03;;
11761;SDS011;5938;47.098;15.474;2024-03-22T09:08:58;21.10;;;3.53;;
11761;SDS011;5938;47.098;15.474;2024-03-22T09:13:00;21.27;;;3.27;;
11761;SDS011;5938;47.098;15.474;2024-03-22T09:17:03;19.80;;;3.50;;
11761;SDS011;5938;47.098;15.474;2024-03-22T09:21:06;18.47;;;2.80;;
11761;SDS011;5938;47.098;15.474;2024-03-22T09:30:41;22.60;;;3.33;;
11761;SDS011;5938;47.098;15.474;2024-03-22T09:34:45;20.10;;;3.83;;
11761;SDS011;5938;47.098;15.474;2024-03-22T09:38:49;18.30;;;2.77;;
11761;SDS011;5938;47.098;15.474;2024-03-22T09:42:52;22.57;;;3.77;;
11761;SDS011;5938;47.098;15.474;2024-03-22T09:46:56;20.40;;;3.07;;
11761;SDS011;5938;47.098;15.474;2024-03-22T09:51:00;22.53;;;3.47;;
11761;SDS011;5938;47.098;15.474;2024-03-22T09:55:03;20.53;;;2.93;;
11761;SDS011;5938;47.098;15.474;2024-03-22T09:59:06;18.07;;;2.47;;
11761;SDS011;5938;47.098;15.474;2024-03-22T10:03:11;19.30;;;3.13;;
11761;SDS011;5938;47.098;15.474;2024-03-22T10:07:13;18.03;;;3.23;;
11761;SDS011;5938;47.098;15.474;2024-03-22T10:11:16;16.67;;;2.43;;
11761;SDS011;5938;47.098;15.474;2024-03-22T10:15:19;19.03;;;4.37;;
11761;SDS011;5938;47.098;15.474;2024-03-22T10:19:23;18.00;;;3.10;;
11761;SDS011;5938;47.098;15.474;2024-03-22T10:23:26;16.80;;;2.93;;
11761;SDS011;5938;47.098;15.474;2024-03-22T10:27:28;16.73;;;2.90;;
11761;SDS011;5938;47.098;15.474;2024-03-22T10:31:30;17.20;;;3.53;;
11761;SDS011;5938;47.098;15.474;2024-03-22T10:35:34;17.33;;;2.90;;
11761;SDS011;5938;47.098;15.474;2024-03-22T10:39:37;19.17;;;3.07;;
11761;SDS011;5938;47.098;15.474;2024-03-22T10:43:42;16.70;;;2.57;;
11761;SDS011;5938;47.098;15.474;2024-03-22T10:47:56;15.80;;;3.23;;
11761;SDS011;5938;47.098;15.474;2024-03-22T10:52:06;18.10;;;3.27;;
11761;SDS011;5938;47.098;15.474;2024-03-22T10:56:12;15.47;;;2.70;;
11761;SDS011;5938;47.098;15.474;2024-03-22T11:00:26;15.27;;;3.00;;
11761;SDS011;5938;47.098;15.474;2024-03-22T11:04:30;14.27;;;2.93;;
11761;SDS011;5938;47.098;15.474;2024-03-22T11:08:35;18.23;;;3.40;;
11761;SDS011;5938;47.098;15.474;2024-03-22T11:12:40;13.77;;;2.87;;
11761;SDS011;5938;47.098;15.474;2024-03-22T11:16:43;14.10;;;2.83;;
11761;SDS011;5938;47.098;15.474;2024-03-22T11:20:46;14.43;;;2.70;;
11761;SDS011;5938;47.098;15.474;2024-03-22T11:24:50;15.10;;;3.07;;
11761;SDS011;5938;47.098;15.474;2024-03-22T11:28:53;14.90;;;2.43;;
11761;SDS011;5938;47.098;15.474;2024-03-22T11:32:56;15.60;;;3.03;;
11761;SDS011;5938;47.098;15.474;2024-03-22T11:36:59;21.03;;;3.70;;
11761;SDS011;5938;47.098;15.474;2024-03-22T11:41:03;18.33;;;2.70;;
11761;SDS011;5938;47.098;15.474;2024-03-22T11:45:06;17.93;;;3.07;;
11761;SDS011;5938;47.098;15.474;2024-03-22T11:49:12;18.47;;;2.60;;
11761;SDS011;5938;47.098;15.474;2024-03-22T11:53:15;17.63;;;2.53;;
11761;SDS011;5938;47.098;15.474;2024-03-22T11:57:20;17.60;;;2.50;;
11761;SDS011;5938;47.098;15.474;2024-03-22T12:01:23;18.27;;;2.80;;
11761;SDS011;5938;47.098;15.474;2024-03-22T12:05:26;17.43;;;2.40;;
11761;SDS011;5938;47.098;15.474;2024-03-22T12:09:30;17.80;;;2.83;;
11761;SDS011;5938;47.098;15.474;2024-03-22T12:13:34;16.80;;;2.67;;
11761;SDS011;5938;47.098;15.474;2024-03-22T12:17:36;17.30;;;2.63;;
11761;SDS011;5938;47.098;15.474;2024-03-22T12:21:40;20.73;;;3.17;;
11761;SDS011;5938;47.098;15.474;2024-03-22T12:25:42;18.50;;;2.80;;
11761;SDS011;5938;47.098;15.474;2024-03-22T12:29:46;17.17;;;2.60;;
11761;SDS011;5938;47.098;15.474;2024-03-22T12:33:49;17.83;;;2.37;;
11761;SDS011;5938;47.098;15.474;2024-03-22T12:37:51;16.73;;;2.40;;
11761;SDS011;5938;47.098;15.474;2024-03-22T12:41:54;17.03;;;2.57;;
11761;SDS011;5938;47.098;15.474;2024-03-22T12:45:58;16.60;;;2.50;;
11761;SDS011;5938;47.098;15.474;2024-03-22T12:50:03;17.03;;;2.57;;
11761;SDS011;5938;47.098;15.474;2024-03-22T12:54:06;15.77;;;2.83;;
11761;SDS011;5938;47.098;15.474;2024-03-22T12:58:10;16.53;;;2.57;;
11761;SDS011;5938;47.098;15.474;2024-03-22T13:02:17;15.47;;;2.40;;
11761;SDS011;5938;47.098;15.474;2024-03-22T13:06:20;15.17;;;2.20;;
11761;SDS011;5938;47.098;15.474;2024-03-22T13:10:22;17.77;;;2.30;;
11761;SDS011;5938;47.098;15.474;2024-03-22T13:14:25;15.30;;;2.60;;
11761;SDS011;5938;47.098;15.474;2024-03-22T13:18:30;16.67;;;2.70;;
11761;SDS011;5938;47.098;15.474;2024-03-22T13:22:33;14.87;;;2.30;;
11761;SDS011;5938;47.098;15.474;2024-03-22T13:26:36;14.00;;;2.50;;
11761;SDS011;5938;47.098;15.474;2024-03-22T13:30:40;14.47;;;2.17;;
11761;SDS011;5938;47.098;15.474;2024-03-22T13:34:44;12.07;;;1.90;;
11761;SDS011;5938;47.098;15.474;2024-03-22T13:38:50;13.80;;;2.40;;
11761;SDS011;5938;47.098;15.474;2024-03-22T13:42:54;13.80;;;2.07;;
11761;SDS011;5938;47.098;15.474;2024-03-22T13:46:59;14.17;;;2.23;;
11761;SDS011;5938;47.098;15.474;2024-03-22T13:55:54;15.83;;;2.17;;
11761;SDS011;5938;47.098;15.474;2024-03-22T14:00:05;15.50;;;2.77;;
11761;SDS011;5938;47.098;15.474;2024-03-22T14:04:15;16.77;;;2.40;;
11761;SDS011;5938;47.098;15.474;2024-03-22T14:08:21;14.53;;;1.70;;
11761;SDS011;5938;47.098;15.474;2024-03-22T14:12:27;15.43;;;2.43;;
11761;SDS011;5938;47.098;15.474;2024-03-22T14:16:29;14.50;;;2.20;;
11761;SDS011;5938;47.098;15.474;2024-03-22T14:20:32;13.80;;;2.10;;
11761;SDS011;5938;47.098;15.474;2024-03-22T14:24:36;13.43;;;2.33;;
11761;SDS011;5938;47.098;15.474;2024-03-22T14:28:39;12.57;;;1.70;;
11761;SDS011;5938;47.098;15.474;2024-03-22T14:32:42;15.20;;;2.13;;
11761;SDS011;5938;47.098;15.474;2024-03-22T14:36:45;17.10;;;2.13;;
11761;SDS011;5938;47.098;15.474;2024-03-22T14:40:49;14.00;;;2.13;;
11761;SDS011;5938;47.098;15.474;2024-03-22T14:44:53;14.60;;;2.00;;
11761;SDS011;5938;47.098;15.474;2024-03-22T14:48:57;15.97;;;2.30;;
11761;SDS011;5938;47.098;15.474;2024-03-22T14:53:00;16.97;;;2.30;;
11761;SDS011;5938;47.098;15.474;2024-03-22T14:57:04;19.27;;;2.17;;
11761;SDS011;5938;47.098;15.474;2024-03-22T15:01:06;17.93;;;2.40;;
11761;SDS011;5938;47.098;15.474;2024-03-22T15:05:10;18.77;;;2.40;;
11761;SDS011;5938;47.098;15.474;2024-03-22T15:09:14;18.30;;;2.23;;
11761;SDS011;5938;47.098;15.474;2024-03-22T15:13:20;19.07;;;2.07;;
11761;SDS011;5938;47.098;15.474;2024-03-22T15:17:23;19.43;;;2.63;;
11761;SDS011;5938;47.098;15.474;2024-03-22T15:21:25;19.77;;;2.23;;
11761;SDS011;5938;47.098;15.474;2024-03-22T15:25:30;19.87;;;2.43;;
11761;SDS011;5938;47.098;15.474;2024-03-22T15:29:35;20.33;;;2.40;;
11761;SDS011;5938;47.098;15.474;2024-03-22T15:33:42;20.40;;;2.60;;
11761;SDS011;5938;47.098;15.474;2024-03-22T15:37:49;20.23;;;2.23;;
11761;SDS011;5938;47.098;15.474;2024-03-22T15:41:52;21.57;;;3.20;;
11761;SDS011;5938;47.098;15.474;2024-03-22T15:45:58;21.70;;;3.30;;
11761;SDS011;5938;47.098;15.474;2024-03-22T15:50:01;20.60;;;3.57;;
11761;SDS011;5938;47.098;15.474;2024-03-22T15:54:04;20.20;;;3.43;;
11761;SDS011;5938;47.098;15.474;2024-03-22T15:58:07;20.90;;;3.83;;
11761;SDS011;5938;47.098;15.474;2024-03-22T16:02:11;20.77;;;3.70;;
11761;SDS011;5938;47.098;15.474;2024-03-22T16:06:14;20.87;;;4.10;;
11761;SDS011;5938;47.098;15.474;2024-03-22T16:10:15;21.70;;;3.77;;
11761;SDS011;5938;47.098;15.474;2024-03-22T16:14:18;20.70;;;3.63;;
11761;SDS011;5938;47.098;15.474;2024-03-22T16:18:23;21.40;;;3.93;;
11761;SDS011;5938;47.098;15.474;2024-03-22T16:22:25;25.20;;;4.20;;
11761;SDS011;5938;47.098;15.474;2024-03-22T16:26:27;22.43;;;4.40;;
11761;SDS011;5938;47.098;15.474;2024-03-22T16:30:30;24.20;;;3.70;;
11761;SDS011;5938;47.098;15.474;2024-03-22T16:34:34;24.00;;;3.00;;
11761;SDS011;5938;47.098;15.474;2024-03-22T16:38:36;22.00;;;3.20;;
11761;SDS011;5938;47.098;15.474;2024-03-22T16:42:44;27.70;;;3.10;;
11761;SDS011;5938;47.098;15.474;2024-03-22T16:46:47;22.37;;;2.93;;
11761;SDS011;5938;47.098;15.474;2024-03-22T16:50:51;25.53;;;2.80;;
11761;SDS011;5938;47.098;15.474;2024-03-22T16:54:53;26.43;;;2.97;;
11761;SDS011;5938;47.098;15.474;2024-03-22T16:58:56;24.20;;;2.80;;
11761;SDS011;5938;47.098;15.474;2024-03-22T17:02:58;24.43;;;2.73;;
11761;SDS011;5938;47.098;15.474;2024-03-22T17:07:05;26.97;;;2.50;;
11761;SDS011;5938;47.098;15.474;2024-03-22T17:11:20;27.13;;;2.93;;
11761;SDS011;5938;47.098;15.474;2024-03-22T17:15:38;24.80;;;2.90;;
11761;SDS011;5938;47.098;15.474;2024-03-22T17:19:40;25.77;;;3.13;;
11761;SDS011;5938;47.098;15.474;2024-03-22T17:23:45;27.53;;;3.10;;
11761;SDS011;5938;47.098;15.474;2024-03-22T17:27:48;28.20;;;3.60;;
11761;SDS011;5938;47.098;15.474;2024-03-22T17:31:52;29.50;;;4.57;;
11761;SDS011;5938;47.098;15.474;2024-03-22T17:35:56;27.17;;;3.67;;
11761;SDS011;5938;47.098;15.474;2024-03-22T17:40:03;31.73;;;4.50;;
11761;SDS011;5938;47.098;15.474;2024-03-22T17:44:08;29.77;;;3.83;;
11761;SDS011;5938;47.098;15.474;2024-03-22T17:48:11;27.63;;;3.77;;
11761;SDS011;5938;47.098;15.474;2024-03-22T17:52:13;29.33;;;4.40;;
11761;SDS011;5938;47.098;15.474;2024-03-22T17:56:18;31.23;;;4.90;;
11761;SDS011;5938;47.098;15.474;2024-03-22T18:00:20;28.23;;;4.40;;
11761;SDS011;5938;47.098;15.474;2024-03-22T18:04:23;28.23;;;4.30;;
11761;SDS011;5938;47.098;15.474;2024-03-22T18:08:25;28.60;;;4.63;;
11761;SDS011;5938;47.098;15.474;2024-03-22T18:12:29;29.53;;;5.10;;
11761;SDS011;5938;47.098;15.474;2024-03-22T18:16:32;29.60;;;5.67;;
11761;SDS011;5938;47.098;15.474;2024-03-22T18:20:36;32.73;;;4.97;;
11761;SDS011;5938;47.098;15.474;2024-03-22T18:24:39;29.50;;;5.57;;
11761;SDS011;5938;47.098;15.474;2024-03-22T18:28:46;35.57;;;6.17;;
11761;SDS011;5938;47.098;15.474;2024-03-22T18:32:49;32.67;;;6.23;;
11761;SDS011;5938;47.098;15.474;2024-03-22T18:37:03;32.67;;;6.00;;
11761;SDS011;5938;47.098;15.474;2024-03-22T18:41:06;31.03;;;5.83;;
11761;SDS011;5938;47.098;15.474;2024-03-22T18:45:15;37.40;;;6.20;;
11761;SDS011;5938;47.098;15.474;2024-03-22T18:49:18;33.20;;;7.40;;
11761;SDS011;5938;47.098;15.474;2024-03-22T18:53:23;43.90;;;10.47;;
11761;SDS011;5938;47.098;15.474;2024-03-22T18:57:25;42.70;;;10.13;;
11761;SDS011;5938;47.098;15.474;2024-03-22T19:01:30;36.73;;;7.30;;
11761;SDS011;5938;47.098;15.474;2024-03-22T19:05:33;36.73;;;7.10;;
11761;SDS011;5938;47.098;15.474;2024-03-22T19:09:38;36.00;;;7.37;;
11761;SDS011;5938;47.098;15.474;2024-03-22T19:13:47;34.73;;;6.87;;
11761;SDS011;5938;47.098;15.474;2024-03-22T19:17:52;37.33;;;7.47;;
11761;SDS011;5938;47.098;15.474;2024-03-22T19:21:57;37.97;;;6.23;;
11761;SDS011;5938;47.098;15.474;2024-03-22T19:26:00;33.67;;;6.00;;
11761;SDS011;5938;47.098;15.474;2024-03-22T19:30:03;32.13;;;5.17;;
11761;SDS011;5938;47.098;15.474;2024-03-22T19:34:09;32.40;;;5.77;;
11761;SDS011;5938;47.098;15.474;2024-03-22T19:38:14;37.07;;;5.27;;
11761;SDS011;5938;47.098;15.474;2024-03-22T19:42:18;33.73;;;5.57;;
11761;SDS011;5938;47.098;15.474;2024-03-22T19:46:25;31.13;;;5.97;;
11761;SDS011;5938;47.098;15.474;2024-03-22T19:50:32;34.30;;;5.70;;
11761;SDS011;5938;47.098;15.474;2024-03-22T19:54:35;34.43;;;5.90;;
11761;SDS011;5938;47.098;15.474;2024-03-22T19:58:39;36.77;;;5.40;;
11761;SDS011;5938;47.098;15.474;2024-03-22T20:02:44;34.43;;;6.27;;
11761;SDS011;5938;47.098;15.474;2024-03-22T20:06:49;33.53;;;5.70;;
11761;SDS011;5938;47.098;15.474;2024-03-22T20:10:53;33.40;;;6.47;;
11761;SDS011;5938;47.098;15.474;2024-03-22T20:14:58;31.90;;;6.10;;
11761;SDS011;5938;47.098;15.474;2024-03-22T20:19:00;33.67;;;5.77;;
11761;SDS011;5938;47.098;15.474;2024-03-22T20:23:07;32.53;;;5.87;;
11761;SDS011;5938;47.098;15.474;2024-03-22T20:27:18;31.47;;;4.50;;
11761;SDS011;5938;47.098;15.474;2024-03-22T20:31:22;35.70;;;5.80;;
11761;SDS011;5938;47.098;15.474;2024-03-22T20:35:28;34.50;;;5.63;;
